Main page
METAR-TAF:

METAR-TAF

Airports :

San Sebastián Airport

San Sebastián, Spain

latitude: 43-21N, longitude: 001-48W, elevation: 5 m

Current weather observation

The report was made 37 minutes ago, at 20:00 UTC
Calm wind
Temperature 17°C
Humidity 77%
Pressure 1017 hPa
Visibility 10 km or more
no clouds below 1500 m and no cumulonimbus

METAR: LESO 092000Z AUTO 00000KT CAVOK 17/13 Q1017

Time: 22:37 (20:37 UTC)

Forecast

The report was made 3 hours and 37 minutes ago, at 17:00 UTC
Forecast valid from 09 at 18 UTC to 10 at 18 UTC
Wind 9 kt from the South/Southeast
Visibility 10 km or more
Few clouds at a height of 3000 ft
Temporary
from 09 at 18 UTC to 09 at 20 UTC
Wind 10 kt from the North

TAF: LESO 091700Z 0918/1018 16009KT 9999 FEW030 TX24/1012Z TN14/1006Z TEMPO 0918/0920 01010KT

Weather observations and forecasts of more than 4000 airports (METAR and TAF reports).

The available stations are represented by yellow and red dots on the map.

Hover mouse over dot to see the name of the station.

Then click to see weather observations and forecasts.

To change the map : click on the green buttons with a black cross to zoom in, on the green button with a dash to zoom out, or on the green arrows for adjacent maps.


METAR-TAF: